createdAt,value
2019-01-13T00:01:45.432Z,6.57
2019-01-13T00:04:14.680Z,5.57
2019-01-13T00:06:43.983Z,4.23
2019-01-13T00:09:13.378Z,3.87
2019-01-13T00:11:42.589Z,3.70
2019-01-13T00:14:11.904Z,3.50
2019-01-13T00:16:41.233Z,4.20
2019-01-13T00:19:10.462Z,3.60
2019-01-13T00:21:39.710Z,4.70
2019-01-13T00:24:08.950Z,3.13
2019-01-13T00:26:38.188Z,3.77
2019-01-13T00:29:08.130Z,3.07
2019-01-13T00:31:37.574Z,2.80
2019-01-13T00:34:06.815Z,3.23
2019-01-13T00:36:36.029Z,3.40
2019-01-13T00:39:08.027Z,3.30
2019-01-13T00:41:37.234Z,3.17
2019-01-13T00:44:06.670Z,3.43
2019-01-13T00:46:35.948Z,3.70
2019-01-13T00:49:05.338Z,2.83
2019-01-13T00:51:34.590Z,2.70
2019-01-13T00:54:04.054Z,2.90
2019-01-13T00:56:33.266Z,3.00
2019-01-13T00:59:02.526Z,2.50
2019-01-13T01:01:31.834Z,3.13
2019-01-13T01:04:01.237Z,2.37
2019-01-13T01:06:30.529Z,1.97
2019-01-13T01:08:59.872Z,1.73
2019-01-13T01:11:29.094Z,1.90
2019-01-13T01:13:58.366Z,2.37
2019-01-13T01:16:27.597Z,2.13
2019-01-13T01:18:56.880Z,2.03
2019-01-13T01:21:26.128Z,2.20
2019-01-13T01:23:55.429Z,2.23
2019-01-13T01:26:24.634Z,2.20
2019-01-13T01:28:53.846Z,2.10
2019-01-13T01:31:23.197Z,2.10
2019-01-13T01:33:52.663Z,1.80
2019-01-13T01:36:21.945Z,2.63
2019-01-13T01:38:51.212Z,2.00
2019-01-13T01:41:20.422Z,2.17
2019-01-13T01:43:49.633Z,2.03
2019-01-13T01:46:18.923Z,2.20
2019-01-13T01:48:48.153Z,2.03
2019-01-13T01:51:17.384Z,2.23
2019-01-13T01:53:46.668Z,2.27
2019-01-13T01:56:15.877Z,2.17
2019-01-13T01:58:45.117Z,2.03
2019-01-13T02:01:14.383Z,2.40
2019-01-13T02:03:43.616Z,2.00
2019-01-13T02:06:12.897Z,2.10
2019-01-13T02:08:42.184Z,2.30
2019-01-13T02:11:11.494Z,2.13
2019-01-13T02:13:40.898Z,2.43
2019-01-13T02:16:10.155Z,2.43
2019-01-13T02:18:39.419Z,2.30
2019-01-13T02:21:08.646Z,2.60
2019-01-13T02:23:37.899Z,2.23
2019-01-13T02:26:07.121Z,2.90
2019-01-13T02:28:36.389Z,2.77
2019-01-13T02:31:05.818Z,2.57
2019-01-13T02:33:35.133Z,2.67
2019-01-13T02:36:04.565Z,3.00
2019-01-13T02:38:33.901Z,3.07
2019-01-13T02:41:03.223Z,2.60
2019-01-13T02:43:32.554Z,3.50
2019-01-13T02:46:01.842Z,3.00
2019-01-13T02:48:31.104Z,3.40
2019-01-13T02:51:00.419Z,3.60
2019-01-13T02:53:29.743Z,2.73
2019-01-13T02:55:59.006Z,3.37
2019-01-13T02:58:28.209Z,9.67
2019-01-13T03:00:57.582Z,3.27
2019-01-13T03:03:26.860Z,5.63
2019-01-13T03:05:56.076Z,3.60
2019-01-13T03:08:25.366Z,2.53
2019-01-13T03:10:54.664Z,2.80
2019-01-13T03:13:23.929Z,2.90
2019-01-13T03:15:53.268Z,2.70
2019-01-13T03:18:22.501Z,4.43
2019-01-13T03:20:52.335Z,4.53
2019-01-13T03:23:21.688Z,10.77
2019-01-13T03:25:50.914Z,15.57
2019-01-13T03:28:20.321Z,3.27
2019-01-13T03:30:49.633Z,6.83
2019-01-13T03:33:18.935Z,6.80
2019-01-13T03:35:48.230Z,4.03
2019-01-13T03:38:17.497Z,6.13
2019-01-13T03:40:46.797Z,7.77
2019-01-13T03:43:16.018Z,3.33
2019-01-13T03:45:45.287Z,7.20
2019-01-13T03:48:14.561Z,23.90
2019-01-13T03:50:43.790Z,5.30
2019-01-13T03:53:13.042Z,5.90
2019-01-13T03:55:42.288Z,4.70
2019-01-13T03:58:11.527Z,2.80
2019-01-13T04:00:40.802Z,2.10
2019-01-13T04:03:10.010Z,3.60
2019-01-13T04:05:39.232Z,5.70
2019-01-13T04:08:08.572Z,3.47
2019-01-13T04:10:37.855Z,2.83
2019-01-13T04:13:07.075Z,2.70
2019-01-13T04:15:43.986Z,4.87
2019-01-13T04:18:13.216Z,4.97
2019-01-13T04:20:42.447Z,4.70
2019-01-13T04:23:11.698Z,3.63
2019-01-13T04:25:41.017Z,4.30
2019-01-13T04:28:10.245Z,3.43
2019-01-13T04:30:39.592Z,2.70
2019-01-13T04:33:08.851Z,2.90
2019-01-13T04:35:38.149Z,3.27
2019-01-13T04:38:07.495Z,3.17
2019-01-13T04:40:36.709Z,2.17
2019-01-13T04:43:06.105Z,2.40
2019-01-13T04:45:35.450Z,4.93
2019-01-13T04:48:04.955Z,6.60
2019-01-13T04:50:34.193Z,4.93
2019-01-13T04:53:03.445Z,7.13
2019-01-13T04:55:32.663Z,2.80
2019-01-13T04:58:01.903Z,2.40
2019-01-13T05:00:31.318Z,2.33
2019-01-13T05:03:00.606Z,2.40
2019-01-13T05:05:29.818Z,1.93
2019-01-13T05:07:59.075Z,2.03
2019-01-13T05:10:28.307Z,2.60
2019-01-13T05:12:59.219Z,2.00
2019-01-13T05:15:28.499Z,2.13
2019-01-13T05:17:57.805Z,2.60
2019-01-13T05:20:27.036Z,2.00
2019-01-13T05:22:56.755Z,2.37
2019-01-13T05:25:26.150Z,2.07
2019-01-13T05:27:55.402Z,1.90
2019-01-13T05:30:24.685Z,2.53
2019-01-13T05:32:53.942Z,2.30
2019-01-13T05:35:23.320Z,2.60
2019-01-13T05:37:52.706Z,2.30
2019-01-13T05:40:22.252Z,2.30
2019-01-13T05:42:51.461Z,2.10
2019-01-13T05:45:21.537Z,2.50
2019-01-13T05:47:50.808Z,1.93
2019-01-13T05:50:20.261Z,2.50
2019-01-13T05:52:54.675Z,2.40
2019-01-13T05:55:24.481Z,1.87
2019-01-13T05:57:53.779Z,1.97
2019-01-13T06:00:25.566Z,1.80
2019-01-13T06:02:55.051Z,2.40
2019-01-13T06:05:24.446Z,2.60
2019-01-13T06:07:53.761Z,2.23
2019-01-13T06:10:23.028Z,1.90
2019-01-13T06:12:52.296Z,2.30
2019-01-13T06:15:25.081Z,2.00
2019-01-13T06:17:54.378Z,2.10
2019-01-13T06:20:25.380Z,2.00
2019-01-13T06:22:54.767Z,1.93
2019-01-13T06:25:23.980Z,2.10
2019-01-13T06:27:53.245Z,2.20
2019-01-13T06:30:23.677Z,2.00
2019-01-13T06:32:52.986Z,2.20
2019-01-13T06:35:22.325Z,1.80
2019-01-13T06:37:51.673Z,1.97
2019-01-13T06:40:22.031Z,2.20
2019-01-13T06:42:51.287Z,2.27
2019-01-13T06:45:25.266Z,2.57
2019-01-13T06:47:54.468Z,3.07
2019-01-13T06:50:23.690Z,10.97
2019-01-13T06:52:52.916Z,7.60
2019-01-13T06:55:22.155Z,7.77
2019-01-13T06:57:51.470Z,7.93
2019-01-13T07:00:29.861Z,4.97
2019-01-13T07:02:59.639Z,5.33
2019-01-13T07:05:28.838Z,4.47
2019-01-13T07:07:58.054Z,3.63
2019-01-13T07:10:27.270Z,2.90
2019-01-13T07:12:56.503Z,3.00
2019-01-13T07:15:25.778Z,3.17
2019-01-13T07:17:54.994Z,4.43
2019-01-13T07:20:24.209Z,3.93
2019-01-13T07:22:53.469Z,3.70
2019-01-13T07:25:22.728Z,4.70
2019-01-13T07:27:51.946Z,4.37
2019-01-13T07:30:25.354Z,4.13
2019-01-13T07:32:54.819Z,3.50
2019-01-13T07:35:24.223Z,3.77
2019-01-13T07:37:53.552Z,3.53
2019-01-13T07:40:23.818Z,5.20
2019-01-13T07:42:53.801Z,4.40
2019-01-13T07:45:27.224Z,4.70
2019-01-13T07:47:56.578Z,4.37
2019-01-13T07:50:25.831Z,4.37
2019-01-13T07:52:55.173Z,4.00
2019-01-13T07:55:25.215Z,4.63
2019-01-13T07:57:54.453Z,6.87
2019-01-13T08:00:29.630Z,5.20
2019-01-13T08:02:58.832Z,5.07
2019-01-13T08:05:28.078Z,4.40
2019-01-13T08:07:57.410Z,3.97
2019-01-13T08:10:26.667Z,4.53
2019-01-13T08:12:56.015Z,4.20
2019-01-13T08:15:25.294Z,3.67
2019-01-13T08:17:54.719Z,5.10
2019-01-13T08:20:29.042Z,8.67
2019-01-13T08:22:58.442Z,5.00
2019-01-13T08:25:27.675Z,4.30
2019-01-13T08:27:56.986Z,4.40
2019-01-13T08:30:26.251Z,4.20
2019-01-13T08:32:55.564Z,9.63
2019-01-13T08:35:24.821Z,5.70
2019-01-13T08:37:54.067Z,13.20
2019-01-13T08:40:23.501Z,11.47
2019-01-13T08:42:52.779Z,10.30
2019-01-13T08:45:22.050Z,15.20
2019-01-13T08:47:51.286Z,9.73
2019-01-13T08:50:22.056Z,12.80
2019-01-13T08:52:51.426Z,6.03
2019-01-13T08:55:21.106Z,11.03
2019-01-13T08:57:50.363Z,7.03
2019-01-13T09:00:27.794Z,5.97
2019-01-13T09:02:57.036Z,10.00
2019-01-13T09:05:26.404Z,15.17
2019-01-13T09:07:55.666Z,5.73
2019-01-13T09:10:25.146Z,7.57
2019-01-13T09:12:56.904Z,8.80
2019-01-13T09:15:26.623Z,7.50
2019-01-13T09:17:55.935Z,9.27
2019-01-13T09:20:27.391Z,8.00
2019-01-13T09:23:00.261Z,11.97
2019-01-13T09:25:30.822Z,8.10
2019-01-13T09:28:00.056Z,6.00
2019-01-13T09:30:30.406Z,8.00
2019-01-13T09:32:59.813Z,7.03
2019-01-13T09:35:29.478Z,6.63
2019-01-13T09:37:58.875Z,7.97
2019-01-13T09:40:30.375Z,8.83
2019-01-13T09:43:01.251Z,7.40
2019-01-13T09:45:30.750Z,11.37
2019-01-13T09:47:59.966Z,10.90
2019-01-13T09:50:29.403Z,9.25
2019-01-13T09:52:58.652Z,7.73
2019-01-13T09:55:27.900Z,11.33
2019-01-13T09:57:57.182Z,9.63
2019-01-13T10:00:35.062Z,13.67
2019-01-13T10:03:04.725Z,13.23
2019-01-13T10:05:33.962Z,13.90
2019-01-13T10:08:03.214Z,8.53
2019-01-13T10:10:32.521Z,8.50
2019-01-13T10:13:01.856Z,7.67
2019-01-13T10:15:31.208Z,7.90
2019-01-13T10:18:00.495Z,7.37
2019-01-13T10:20:29.740Z,5.80
2019-01-13T10:22:58.985Z,6.93
2019-01-13T10:25:28.602Z,4.90
2019-01-13T10:27:57.981Z,4.67
2019-01-13T10:30:29.605Z,19.33
2019-01-13T10:32:58.899Z,12.07
2019-01-13T10:35:28.439Z,7.93
2019-01-13T10:37:57.730Z,6.77
2019-01-13T10:40:29.024Z,5.57
2019-01-13T10:42:58.591Z,4.50
2019-01-13T10:45:28.167Z,6.30
2019-01-13T10:47:57.393Z,6.43
2019-01-13T10:50:31.795Z,7.43
2019-01-13T10:53:03.290Z,13.47
2019-01-13T10:55:32.665Z,6.40
2019-01-13T10:58:02.002Z,7.70
2019-01-13T11:00:33.258Z,10.10
2019-01-13T11:03:02.798Z,8.17
2019-01-13T11:05:32.349Z,8.40
2019-01-13T11:08:01.861Z,8.57
2019-01-13T11:10:31.094Z,8.40
2019-01-13T11:13:00.482Z,10.83
2019-01-13T11:15:29.810Z,8.90
2019-01-13T11:17:59.174Z,11.33
2019-01-13T11:20:40.029Z,31.53
2019-01-13T11:23:09.424Z,8.07
2019-01-13T11:25:38.943Z,12.00
2019-01-13T11:28:08.837Z,15.50
2019-01-13T11:30:38.123Z,24.33
2019-01-13T11:33:09.692Z,6.33
2019-01-13T11:35:38.367Z,7.63
2019-01-13T11:38:08.125Z,14.15
2019-01-13T11:40:37.434Z,12.67
2019-01-13T11:43:06.715Z,7.03
2019-01-13T11:45:36.007Z,7.77
2019-01-13T11:48:05.468Z,10.53
2019-01-13T11:50:34.758Z,4.97
2019-01-13T11:53:04.101Z,9.03
2019-01-13T11:55:33.446Z,4.50
2019-01-13T11:58:02.785Z,7.50
2019-01-13T12:00:40.641Z,13.30
2019-01-13T12:03:16.490Z,8.13
2019-01-13T12:05:40.913Z,4.03
2019-01-13T12:08:10.164Z,5.62
2019-01-13T12:10:39.512Z,11.17
2019-01-13T12:13:08.773Z,9.80
2019-01-13T12:15:38.108Z,11.57
2019-01-13T12:18:07.387Z,3.13
2019-01-13T12:20:36.702Z,3.70
2019-01-13T12:23:06.163Z,7.07
2019-01-13T12:25:35.471Z,7.65
2019-01-13T12:28:05.118Z,2.10
2019-01-13T12:30:34.529Z,2.77
2019-01-13T12:33:04.298Z,2.00
2019-01-13T12:35:33.557Z,4.92
2019-01-13T12:38:03.138Z,2.43
2019-01-13T12:40:32.913Z,3.40
2019-01-13T12:43:03.622Z,3.63
2019-01-13T12:45:33.019Z,3.85
2019-01-13T12:48:02.394Z,5.20
2019-01-13T12:50:32.059Z,2.40
2019-01-13T12:53:01.660Z,2.07
2019-01-13T12:55:31.084Z,1.98
2019-01-13T12:58:00.370Z,1.80
2019-01-13T13:00:29.594Z,2.80
2019-01-13T13:02:58.986Z,3.30
2019-01-13T13:05:28.358Z,3.13
2019-01-13T13:07:57.602Z,2.90
2019-01-13T13:10:49.872Z,2.50
2019-01-13T13:13:19.165Z,2.90
2019-01-13T13:15:48.407Z,3.50
2019-01-13T13:18:17.724Z,2.53
2019-01-13T13:20:46.970Z,3.87
2019-01-13T13:23:16.208Z,3.47
2019-01-13T13:25:45.491Z,2.77
2019-01-13T13:28:14.726Z,3.10
2019-01-13T13:30:43.960Z,2.67
2019-01-13T13:33:13.418Z,3.87
2019-01-13T13:35:42.780Z,2.57
2019-01-13T13:38:12.136Z,4.40
2019-01-13T13:40:41.516Z,12.70
2019-01-13T13:43:10.824Z,27.37
2019-01-13T13:45:40.127Z,16.43
2019-01-13T13:48:09.486Z,13.03
2019-01-13T13:50:38.818Z,6.37
2019-01-13T13:53:08.163Z,5.20
2019-01-13T13:55:37.474Z,7.07
2019-01-13T13:58:06.802Z,4.20
2019-01-13T14:00:37.904Z,11.17
2019-01-13T14:03:07.322Z,10.77
2019-01-13T14:05:36.629Z,3.67
2019-01-13T14:08:06.782Z,3.73
2019-01-13T14:10:43.919Z,4.77
2019-01-13T14:13:13.636Z,3.47
2019-01-13T14:15:43.034Z,6.20
2019-01-13T14:18:31.377Z,6.00
2019-01-13T14:21:00.695Z,3.62
2019-01-13T14:23:29.903Z,2.93
2019-01-13T14:25:59.196Z,2.63
2019-01-13T14:28:28.463Z,3.60
2019-01-13T14:30:57.690Z,4.80
2019-01-13T14:33:27.098Z,3.50
2019-01-13T14:35:56.411Z,4.83
2019-01-13T14:38:25.650Z,14.17
2019-01-13T14:40:54.931Z,13.93
2019-01-13T14:43:24.212Z,13.73
2019-01-13T14:45:53.517Z,5.53
2019-01-13T14:48:22.839Z,22.13
2019-01-13T14:50:52.162Z,8.40
2019-01-13T14:53:23.226Z,18.17
2019-01-13T14:55:52.607Z,23.30
2019-01-13T14:58:21.852Z,38.13
2019-01-13T15:00:51.061Z,11.77
2019-01-13T15:03:20.329Z,11.63
2019-01-13T15:05:49.756Z,24.20
2019-01-13T15:08:19.030Z,28.00
2019-01-13T15:10:48.452Z,21.77
2019-01-13T15:13:17.722Z,15.40
2019-01-13T15:15:47.118Z,13.17
2019-01-13T15:18:16.382Z,16.13
2019-01-13T15:20:45.825Z,8.00
2019-01-13T15:23:15.086Z,19.30
2019-01-13T15:25:44.395Z,28.37
2019-01-13T15:28:13.615Z,19.67
2019-01-13T15:30:42.877Z,7.20
2019-01-13T15:33:12.205Z,20.53
2019-01-13T15:35:41.479Z,10.40
2019-01-13T15:38:11.231Z,17.57
2019-01-13T15:40:40.683Z,12.47
2019-01-13T15:43:09.970Z,15.53
2019-01-13T15:45:39.241Z,19.53
2019-01-13T15:48:08.950Z,13.63
2019-01-13T15:50:38.351Z,7.40
2019-01-13T15:53:07.675Z,11.83
2019-01-13T15:55:37.011Z,5.47
2019-01-13T15:58:06.715Z,5.73
2019-01-13T16:00:37.339Z,5.77
2019-01-13T16:03:08.598Z,7.57
2019-01-13T16:05:38.203Z,4.80
2019-01-13T16:08:08.674Z,4.53
2019-01-13T16:10:39.792Z,4.30
2019-01-13T16:13:09.103Z,3.87
2019-01-13T16:15:38.386Z,4.73
2019-01-13T16:18:08.843Z,6.72
2019-01-13T16:20:39.594Z,4.78
2019-01-13T16:23:08.844Z,7.33
2019-01-13T16:25:38.114Z,8.03
2019-01-13T16:28:08.053Z,7.43
2019-01-13T16:30:37.288Z,4.13
2019-01-13T16:33:06.540Z,4.30
2019-01-13T16:35:35.851Z,3.73
2019-01-13T16:38:06.799Z,5.40
2019-01-13T16:40:36.251Z,15.67
2019-01-13T16:43:05.530Z,6.87
2019-01-13T16:45:34.972Z,7.40
2019-01-13T16:48:05.029Z,14.23
2019-01-13T16:50:34.261Z,10.83
2019-01-13T16:53:06.091Z,7.80
2019-01-13T16:55:34.879Z,3.80
2019-01-13T16:58:04.373Z,7.63
2019-01-13T17:00:33.773Z,8.27
2019-01-13T17:03:03.144Z,4.70
2019-01-13T17:05:33.180Z,10.27
2019-01-13T17:08:02.707Z,7.40
2019-01-13T17:10:32.046Z,3.60
2019-01-13T17:13:01.273Z,7.37
2019-01-13T17:15:35.242Z,5.40
2019-01-13T17:18:05.170Z,4.63
2019-01-13T17:20:34.385Z,10.00
2019-01-13T17:23:03.597Z,5.30
2019-01-13T17:25:32.861Z,3.60
2019-01-13T17:28:02.257Z,6.77
2019-01-13T17:30:35.773Z,4.50
2019-01-13T17:33:05.403Z,3.73
2019-01-13T17:35:34.809Z,2.93
2019-01-13T17:38:04.256Z,2.50
2019-01-13T17:40:33.681Z,3.77
2019-01-13T17:43:02.971Z,3.62
2019-01-13T17:45:35.497Z,3.60
2019-01-13T17:48:06.192Z,2.30
2019-01-13T17:50:35.526Z,2.70
2019-01-13T17:53:07.099Z,2.90
2019-01-13T17:55:36.367Z,1.90
2019-01-13T17:58:06.173Z,3.83
2019-01-13T18:01:08.425Z,4.63
2019-01-13T18:03:43.521Z,6.70
2019-01-13T18:06:12.874Z,3.20
2019-01-13T18:08:42.150Z,3.20
2019-01-13T18:11:11.461Z,3.33
2019-01-13T18:13:40.720Z,2.10
2019-01-13T18:16:10.035Z,2.83
2019-01-13T18:18:39.253Z,5.90
2019-01-13T18:21:08.595Z,2.83
2019-01-13T18:23:37.857Z,13.93
2019-01-13T18:26:07.246Z,3.87
2019-01-13T18:28:36.524Z,5.37
2019-01-13T18:31:05.818Z,4.53
2019-01-13T18:33:35.044Z,2.47
2019-01-13T18:36:04.390Z,3.43
2019-01-13T18:38:33.628Z,1.47
2019-01-13T18:41:02.878Z,2.00
2019-01-13T18:43:32.199Z,1.47
2019-01-13T18:46:01.469Z,1.90
2019-01-13T18:48:30.761Z,1.87
2019-01-13T18:51:00.112Z,1.80
2019-01-13T18:53:29.404Z,1.83
2019-01-13T18:55:58.731Z,1.40
2019-01-13T18:58:28.178Z,1.60
2019-01-13T19:00:57.448Z,1.40
2019-01-13T19:03:28.146Z,1.60
2019-01-13T19:05:57.542Z,1.77
2019-01-13T19:08:26.794Z,2.13
2019-01-13T19:11:25.183Z,2.00
2019-01-13T19:14:15.551Z,1.60
2019-01-13T19:16:53.720Z,2.13
2019-01-13T19:19:23.074Z,2.13
2019-01-13T19:21:52.340Z,3.77
2019-01-13T19:24:21.631Z,2.73
2019-01-13T19:26:50.861Z,2.73
2019-01-13T19:29:20.239Z,2.93
2019-01-13T19:32:06.631Z,2.50
2019-01-13T19:34:31.595Z,2.57
2019-01-13T19:37:00.859Z,2.90
2019-01-13T19:39:30.159Z,5.80
2019-01-13T19:41:59.464Z,6.10
2019-01-13T19:44:28.774Z,7.70
2019-01-13T19:47:04.727Z,11.43
2019-01-13T19:49:34.071Z,9.17
2019-01-13T19:52:03.425Z,10.53
2019-01-13T19:54:32.693Z,9.37
2019-01-13T19:57:02.002Z,18.77
2019-01-13T19:59:31.255Z,7.77
2019-01-13T20:02:00.594Z,6.07
2019-01-13T20:04:29.980Z,4.00
2019-01-13T20:06:59.298Z,3.30
2019-01-13T20:09:28.594Z,3.50
2019-01-13T20:11:57.971Z,3.75
2019-01-13T20:14:27.219Z,3.13
2019-01-13T20:16:56.520Z,2.97
2019-01-13T20:19:25.841Z,3.20
2019-01-13T20:21:55.163Z,2.77
2019-01-13T20:24:24.476Z,1.87
2019-01-13T20:26:53.921Z,2.20
2019-01-13T20:29:23.214Z,2.60
2019-01-13T20:31:52.530Z,2.90
2019-01-13T20:34:21.799Z,3.43
2019-01-13T20:36:51.101Z,3.42
2019-01-13T20:39:21.380Z,3.03
2019-01-13T20:41:50.676Z,2.93
2019-01-13T20:44:19.957Z,2.97
2019-01-13T20:46:49.321Z,3.47
2019-01-13T20:49:18.595Z,3.00
2019-01-13T20:51:47.919Z,4.83
2019-01-13T20:54:17.314Z,2.87
2019-01-13T20:56:46.538Z,4.30
2019-01-13T20:59:15.790Z,3.57
2019-01-13T21:01:45.117Z,3.90
2019-01-13T21:04:14.441Z,3.10
2019-01-13T21:06:44.002Z,3.57
2019-01-13T21:09:13.339Z,4.47
2019-01-13T21:11:42.599Z,4.07
2019-01-13T21:14:11.907Z,3.23
2019-01-13T21:16:41.239Z,3.37
2019-01-13T21:19:10.525Z,3.30
2019-01-13T21:21:39.832Z,6.83
2019-01-13T21:24:09.186Z,7.63
2019-01-13T21:26:38.439Z,7.97
2019-01-13T21:29:07.822Z,7.70
2019-01-13T21:31:37.195Z,5.63
2019-01-13T21:34:06.677Z,11.50
2019-01-13T21:36:35.924Z,8.60
2019-01-13T21:39:08.479Z,2.97
2019-01-13T21:41:37.732Z,3.40
2019-01-13T21:44:07.226Z,2.17
2019-01-13T21:46:36.662Z,2.47
2019-01-13T21:49:06.064Z,3.80
2019-01-13T21:51:35.623Z,2.27
2019-01-13T21:54:10.930Z,2.90
2019-01-13T21:56:36.077Z,4.90
2019-01-13T21:59:05.333Z,4.10
2019-01-13T22:01:35.605Z,6.50
2019-01-13T22:04:05.514Z,5.83
2019-01-13T22:06:34.742Z,4.03
2019-01-13T22:09:08.037Z,2.80
2019-01-13T22:11:37.416Z,4.63
2019-01-13T22:14:06.795Z,3.13
2019-01-13T22:16:36.221Z,2.30
2019-01-13T22:19:05.451Z,2.30
2019-01-13T22:21:34.866Z,2.93
2019-01-13T22:24:04.552Z,3.27
2019-01-13T22:26:33.818Z,7.07
2019-01-13T22:29:03.091Z,4.07
2019-01-13T22:31:32.453Z,3.50
2019-01-13T22:34:01.750Z,2.73
2019-01-13T22:36:31.012Z,2.40
2019-01-13T22:39:00.351Z,5.70
2019-01-13T22:41:35.989Z,2.17
2019-01-13T22:44:10.618Z,2.60
2019-01-13T22:46:39.831Z,2.30
2019-01-13T22:49:09.258Z,2.20
2019-01-13T22:51:38.519Z,2.97
2019-01-13T22:54:07.815Z,2.10
2019-01-13T22:56:37.190Z,2.17
2019-01-13T22:59:06.487Z,2.73
2019-01-13T23:01:48.134Z,5.03
2019-01-13T23:04:18.592Z,3.50
2019-01-13T23:06:47.881Z,2.83
2019-01-13T23:09:17.109Z,2.33
2019-01-13T23:11:46.393Z,2.50
2019-01-13T23:14:15.647Z,2.27
2019-01-13T23:17:07.395Z,2.33
2019-01-13T23:19:36.761Z,2.40
2019-01-13T23:22:06.007Z,2.57
2019-01-13T23:24:35.368Z,1.93
2019-01-13T23:27:04.632Z,2.70
2019-01-13T23:29:33.908Z,2.20
2019-01-13T23:32:03.209Z,2.60
2019-01-13T23:34:32.436Z,2.83
2019-01-13T23:37:03.360Z,2.67
2019-01-13T23:39:32.637Z,2.73
2019-01-13T23:42:01.953Z,3.57
2019-01-13T23:44:31.292Z,2.93
2019-01-13T23:47:00.652Z,2.53
2019-01-13T23:49:30.138Z,2.37
2019-01-13T23:51:59.404Z,2.27
2019-01-13T23:54:28.726Z,2.20
2019-01-13T23:56:58.005Z,2.00
2019-01-13T23:59:27.359Z,2.30
